Time;durP1;ratioP1;P1;durP2;ratioP2;P2;SDS_P1;SDS_P2;PMS_P1;PMS_P2;Temp;Humidity;BMP_temperature;BMP_pressure;BME280_temperature;BME280_humidity;BME280_pressure;Samples;Min_cycle;Max_cycle;Signal;HPM_P1;HPM_P2
2022/03/07 00:01:56;;;;;;;15.88;9.15;;;0.10;99.90;;;;;;11874923;29;20067;-83
2022/03/07 00:07:59;;;;;;;14.98;9.02;;;0.10;99.90;;;;;;11872752;29;20606;-83
2022/03/07 00:14:21;;;;;;;13.40;8.63;;;0.10;99.90;;;;;;11887539;29;20050;-83
2022/03/07 00:20:23;;;;;;;13.88;8.65;;;0.10;99.90;;;;;;11875255;29;20054;-83
2022/03/07 00:26:25;;;;;;;16.00;9.68;;;0.20;99.90;;;;;;11893499;29;20580;-83
2022/03/07 00:32:27;;;;;;;15.52;8.57;;;0.20;99.90;;;;;;11875063;29;20051;-83
2022/03/07 00:38:29;;;;;;;14.25;8.95;;;0.40;99.90;;;;;;11890901;29;20509;-83
2022/03/07 00:44:30;;;;;;;13.32;8.30;;;0.30;99.90;;;;;;11872958;29;20051;-83
2022/03/07 00:50:33;;;;;;;12.73;9.00;;;0.30;99.90;;;;;;11872033;29;20043;-83
2022/03/07 00:56:35;;;;;;;11.65;7.88;;;0.40;99.90;;;;;;11871895;29;20054;-83
2022/03/07 01:02:38;;;;;;;10.57;7.43;;;0.40;99.90;;;;;;11876871;29;20225;-83
2022/03/07 01:08:40;;;;;;;12.33;8.67;;;0.30;99.90;;;;;;11871537;29;22123;-83
2022/03/07 01:14:43;;;;;;;14.70;8.60;;;0.40;99.90;;;;;;11873752;29;20358;-83
2022/03/07 01:20:44;;;;;;;15.55;10.18;;;0.40;99.90;;;;;;11871940;29;20247;-83
2022/03/07 01:26:46;;;;;;;18.27;9.73;;;0.50;99.90;;;;;;11875167;29;20055;-83
2022/03/07 01:32:48;;;;;;;13.57;9.10;;;0.40;99.90;;;;;;11878193;29;20077;-83
2022/03/07 01:38:50;;;;;;;14.75;10.07;;;0.40;99.90;;;;;;11870476;29;20471;-83
2022/03/07 01:44:52;;;;;;;15.38;9.02;;;0.30;99.90;;;;;;11874298;29;20059;-83
2022/03/07 01:50:54;;;;;;;12.68;8.32;;;0.30;99.90;;;;;;11873890;29;20081;-83
2022/03/07 01:56:56;;;;;;;14.30;8.43;;;0.30;99.90;;;;;;11874439;29;20986;-83
2022/03/07 02:02:58;;;;;;;13.05;8.40;;;0.30;99.90;;;;;;11870781;29;20114;-83
2022/03/07 02:09:01;;;;;;;13.10;8.73;;;0.30;99.90;;;;;;11871883;29;20149;-83
2022/03/07 02:15:04;;;;;;;14.00;8.13;;;0.20;99.90;;;;;;11877058;29;20054;-83
2022/03/07 02:21:11;;;;;;;11.05;7.75;;;0.30;99.90;;;;;;11876322;29;20058;-82
2022/03/07 02:27:16;;;;;;;12.02;7.28;;;0.30;99.90;;;;;;11882340;29;20059;-82
2022/03/07 02:33:18;;;;;;;11.95;7.05;;;0.20;99.90;;;;;;11874528;29;20462;-83
2022/03/07 02:39:20;;;;;;;9.15;6.38;;;0.30;99.90;;;;;;11870948;29;20066;-83
2022/03/07 02:45:22;;;;;;;10.23;6.10;;;0.40;99.90;;;;;;11873233;29;20047;-83
2022/03/07 02:51:23;;;;;;;10.05;6.88;;;0.40;99.90;;;;;;11870763;29;20055;-83
2022/03/07 02:57:25;;;;;;;14.70;9.98;;;0.40;99.90;;;;;;11877188;29;20496;-83
2022/03/07 03:03:29;;;;;;;18.63;10.50;;;0.50;99.90;;;;;;11865490;29;20099;-83
2022/03/07 03:09:31;;;;;;;16.83;10.77;;;0.50;99.90;;;;;;11872078;29;20085;-83
2022/03/07 03:15:32;;;;;;;15.63;10.38;;;0.30;99.90;;;;;;11871192;29;20059;-82
2022/03/07 03:21:34;;;;;;;15.73;10.30;;;0.20;99.90;;;;;;11870622;29;20592;-83
2022/03/07 03:27:37;;;;;;;15.35;10.32;;;0.00;99.90;;;;;;11880218;29;20102;-83
2022/03/07 03:33:42;;;;;;;17.83;12.13;;;0.10;99.90;;;;;;11886806;29;20111;-83
2022/03/07 03:39:44;;;;;;;20.92;12.43;;;0.30;99.90;;;;;;11884487;29;20074;-83
2022/03/07 03:45:46;;;;;;;20.13;11.65;;;0.20;99.90;;;;;;11884096;29;20044;-83
2022/03/07 03:51:47;;;;;;;19.80;11.63;;;0.10;99.90;;;;;;11882558;29;20047;-83
2022/03/07 03:57:49;;;;;;;20.30;11.68;;;0.10;99.90;;;;;;11904849;29;20125;-83
2022/03/07 04:03:51;;;;;;;15.75;10.18;;;0.10;99.90;;;;;;11903156;29;20169;-83
2022/03/07 04:09:53;;;;;;;16.70;10.02;;;0.00;99.90;;;;;;11900580;29;20066;-83
2022/03/07 04:15:57;;;;;;;17.15;10.32;;;0.00;99.90;;;;;;11887653;29;20492;-83
2022/03/07 04:21:59;;;;;;;15.93;9.85;;;0.10;99.90;;;;;;11876591;29;20047;-83
2022/03/07 04:28:01;;;;;;;15.93;11.43;;;0.20;99.90;;;;;;11875578;29;20062;-83
2022/03/07 04:34:04;;;;;;;24.00;14.00;;;0.30;99.90;;;;;;11874604;29;20095;-83
2022/03/07 04:40:17;;;;;;;19.08;12.30;;;0.20;99.90;;;;;;11872655;29;20404;-82
2022/03/07 04:46:19;;;;;;;18.27;11.35;;;0.20;99.90;;;;;;11875385;29;20467;-83
2022/03/07 04:52:21;;;;;;;16.33;10.95;;;0.10;99.90;;;;;;11874140;29;20108;-83
2022/03/07 04:58:23;;;;;;;16.67;10.77;;;0.10;99.90;;;;;;11882017;29;20066;-83
2022/03/07 05:04:25;;;;;;;18.83;10.73;;;0.00;99.90;;;;;;11891578;29;20497;-83
2022/03/07 05:10:31;;;;;;;17.38;10.23;;;-0.10;99.90;;;;;;11878586;29;20071;-82
2022/03/07 05:16:33;;;;;;;17.60;10.93;;;-0.10;99.90;;;;;;11882222;29;20067;-83
2022/03/07 05:22:34;;;;;;;18.52;12.23;;;-0.20;99.90;;;;;;11879741;29;20138;-83
2022/03/07 05:28:36;;;;;;;19.45;12.45;;;-0.40;99.90;;;;;;11890753;29;20118;-83
2022/03/07 05:34:38;;;;;;;19.77;12.82;;;-0.60;99.90;;;;;;11882513;29;20521;-83
2022/03/07 05:40:40;;;;;;;18.90;12.73;;;-0.70;99.90;;;;;;11892936;29;20114;-83
2022/03/07 05:46:42;;;;;;;17.35;11.75;;;-0.80;99.90;;;;;;11883445;29;20484;-82
2022/03/07 05:52:44;;;;;;;22.00;12.70;;;-0.90;99.90;;;;;;11885240;29;20629;-83
2022/03/07 05:58:46;;;;;;;17.33;11.35;;;-1.00;99.90;;;;;;11881646;29;21138;-83
2022/03/07 06:04:48;;;;;;;16.00;10.88;;;-1.10;99.90;;;;;;11866492;29;20055;-83
2022/03/07 06:10:50;;;;;;;19.38;10.98;;;-1.20;99.90;;;;;;11870137;29;20226;-84
2022/03/07 06:16:52;;;;;;;17.35;10.30;;;-1.10;99.90;;;;;;11877396;29;20144;-84
2022/03/07 06:22:54;;;;;;;16.02;10.98;;;-1.00;99.90;;;;;;11867002;29;20059;-84
2022/03/07 06:28:56;;;;;;;19.60;11.27;;;-1.00;99.90;;;;;;11873027;29;20051;-84
2022/03/07 06:34:59;;;;;;;16.02;10.60;;;-1.00;99.90;;;;;;11869555;29;20074;-84
2022/03/07 06:41:02;;;;;;;15.52;9.80;;;-0.90;99.90;;;;;;11876664;29;20054;-84
2022/03/07 06:47:04;;;;;;;14.93;10.35;;;-0.80;99.90;;;;;;11868685;29;20086;-84
2022/03/07 06:53:06;;;;;;;15.27;10.05;;;-0.80;99.90;;;;;;11875880;29;20405;-84
2022/03/07 06:59:07;;;;;;;17.83;9.15;;;-0.70;99.90;;;;;;11872830;29;20067;-84
2022/03/07 07:05:09;;;;;;;18.10;10.07;;;-0.40;99.90;;;;;;11872730;29;20058;-84
2022/03/07 07:11:11;;;;;;;16.02;10.55;;;-0.40;99.90;;;;;;11888377;29;20623;-84
2022/03/07 07:17:15;;;;;;;17.95;11.63;;;-0.20;99.90;;;;;;11881069;29;20644;-84
2022/03/07 07:23:18;;;;;;;15.93;10.10;;;0.10;99.90;;;;;;11878917;29;20464;-84
2022/03/07 07:29:21;;;;;;;18.67;10.73;;;0.30;99.90;;;;;;11879494;29;20113;-84
2022/03/07 07:35:23;;;;;;;18.02;10.75;;;0.50;99.90;;;;;;11877629;29;20059;-84
2022/03/07 07:41:25;;;;;;;16.65;10.63;;;0.60;99.90;;;;;;11882309;29;20541;-84
2022/03/07 07:47:27;;;;;;;15.88;10.75;;;0.90;99.90;;;;;;11880242;29;20051;-84
2022/03/07 07:53:29;;;;;;;18.33;12.00;;;1.20;99.90;;;;;;11876435;29;20051;-84
2022/03/07 07:59:31;;;;;;;16.65;11.30;;;1.60;99.90;;;;;;11885425;29;20101;-84
2022/03/07 08:05:33;;;;;;;22.20;13.70;;;1.80;99.90;;;;;;11873859;29;20055;-84
2022/03/07 08:11:35;;;;;;;25.17;14.57;;;2.30;99.90;;;;;;11879556;29;20151;-83
2022/03/07 08:17:43;;;;;;;26.67;15.18;;;2.50;99.90;;;;;;11885278;29;20115;-83
2022/03/07 08:23:45;;;;;;;28.33;15.93;;;2.30;99.90;;;;;;11874585;29;20051;-83
2022/03/07 08:29:47;;;;;;;27.25;15.60;;;2.40;99.90;;;;;;11881020;29;20107;-83
2022/03/07 08:35:50;;;;;;;24.70;15.00;;;2.70;99.90;;;;;;11877571;29;20579;-83
2022/03/07 08:41:52;;;;;;;25.85;15.20;;;2.50;99.90;;;;;;11882639;29;20569;-83
2022/03/07 08:47:55;;;;;;;30.50;15.98;;;2.60;99.90;;;;;;11875054;29;20058;-84
2022/03/07 08:53:57;;;;;;;26.13;15.02;;;2.80;99.90;;;;;;11879260;29;20058;-83
2022/03/07 08:59:59;;;;;;;23.52;14.57;;;3.20;99.90;;;;;;11890410;29;20055;-83
2022/03/07 09:06:01;;;;;;;27.08;14.20;;;3.40;99.90;;;;;;11877611;29;20059;-84
2022/03/07 09:12:04;;;;;;;26.52;14.68;;;3.60;99.90;;;;;;11874185;29;20484;-84
2022/03/07 09:18:06;;;;;;;23.45;13.52;;;3.90;99.90;;;;;;11873101;29;20054;-83
2022/03/07 09:24:08;;;;;;;17.65;11.75;;;4.10;99.90;;;;;;11880071;29;20051;-84
2022/03/07 09:30:12;;;;;;;20.98;13.40;;;4.00;99.90;;;;;;11873500;29;20046;-83
2022/03/07 09:36:14;;;;;;;19.95;10.95;;;4.20;99.90;;;;;;11875920;29;20504;-84
2022/03/07 09:42:16;;;;;;;15.75;10.38;;;4.30;99.90;;;;;;11879637;29;20072;-84
2022/03/07 09:48:22;;;;;;;14.75;10.65;;;4.30;99.90;;;;;;11876433;29;20065;-84
2022/03/07 09:54:23;;;;;;;17.75;10.88;;;4.50;99.90;;;;;;11876553;29;20142;-84
2022/03/07 10:00:25;;;;;;;18.67;9.73;;;4.70;99.90;;;;;;11902860;29;20054;-84
2022/03/07 10:06:29;;;;;;;17.90;9.73;;;5.20;99.90;;;;;;11894560;29;20136;-84
2022/03/07 10:12:31;;;;;;;14.47;8.57;;;5.40;99.90;;;;;;11903326;29;20136;-84
2022/03/07 10:18:33;;;;;;;11.55;7.53;;;5.70;99.90;;;;;;11890974;29;20067;-84
2022/03/07 10:24:37;;;;;;;11.57;7.15;;;5.80;99.90;;;;;;11876788;29;20047;-85
2022/03/07 10:30:40;;;;;;;10.13;5.57;;;6.10;99.90;;;;;;11872529;29;20051;-84
2022/03/07 10:36:43;;;;;;;9.77;5.45;;;6.30;99.90;;;;;;11887573;29;20054;-84
2022/03/07 10:42:47;;;;;;;8.32;5.25;;;6.40;99.90;;;;;;11890450;29;20840;-84
2022/03/07 10:48:50;;;;;;;6.53;4.20;;;6.30;99.90;;;;;;11889468;29;20089;-84
2022/03/07 10:54:52;;;;;;;6.25;3.92;;;6.40;99.90;;;;;;11884418;29;20493;-84
2022/03/07 11:00:55;;;;;;;12.55;5.40;;;6.20;99.90;;;;;;11896728;29;24155;-84
2022/03/07 11:06:57;;;;;;;10.50;6.97;;;6.20;99.90;;;;;;11882260;29;20088;-85
2022/03/07 11:13:01;;;;;;;9.13;6.03;;;6.60;99.90;;;;;;11872825;29;20051;-85
2022/03/07 11:19:03;;;;;;;9.60;5.75;;;7.00;99.90;;;;;;11896833;29;20123;-85
2022/03/07 11:25:08;;;;;;;9.05;6.05;;;7.00;99.90;;;;;;11903132;29;20127;-85
2022/03/07 11:31:22;;;;;;;;;;;6.90;99.90;;;;;;11881663;29;20121;-85
2022/03/07 11:37:29;;;;;;;12.02;6.43;;;7.00;99.90;;;;;;11894865;29;20789;-85
2022/03/07 11:43:33;;;;;;;10.15;6.22;;;6.80;99.90;;;;;;11883543;29;20059;-85
2022/03/07 11:49:35;;;;;;;9.30;5.90;;;7.20;99.90;;;;;;11886940;29;20063;-85
2022/03/07 11:55:49;;;;;;;9.30;6.43;;;7.40;99.90;;;;;;11881428;29;20066;-85
2022/03/07 12:01:53;;;;;;;8.90;5.85;;;7.60;99.90;;;;;;11880731;29;20067;-85
2022/03/07 12:08:16;;;;;;;13.07;7.10;;;7.70;99.90;;;;;;11883113;29;20512;-84
2022/03/07 12:14:29;;;;;;;12.27;6.70;;;7.80;99.90;;;;;;11881590;29;20064;-84
2022/03/07 12:20:31;;;;;;;11.18;6.75;;;7.60;99.90;;;;;;11900642;29;20528;-85
2022/03/07 12:26:45;;;;;;;12.25;8.15;;;8.00;99.90;;;;;;11875436;29;20051;-84
2022/03/07 12:32:47;;;;;;;13.55;7.93;;;7.90;99.90;;;;;;11883768;29;20058;-84
2022/03/07 12:38:54;;;;;;;10.48;7.30;;;8.00;99.90;;;;;;11896000;29;20097;-85
2022/03/07 12:45:00;;;;;;;9.27;6.05;;;8.00;99.90;;;;;;11898354;29;20504;-84
2022/03/07 12:51:19;;;;;;;11.75;6.63;;;7.70;99.90;;;;;;11882843;29;20416;-84
2022/03/07 12:57:22;;;;;;;15.98;7.30;;;8.00;99.90;;;;;;11877269;29;20065;-84
2022/03/07 13:03:35;;;;;;;9.48;6.63;;;7.80;99.90;;;;;;11892431;29;20120;-84
2022/03/07 13:09:37;;;;;;;11.43;5.88;;;7.90;99.90;;;;;;11874305;29;20065;-85
2022/03/07 13:15:42;;;;;;;10.52;6.72;;;7.60;99.90;;;;;;11879522;29;20063;-85
2022/03/07 13:21:46;;;;;;;9.93;6.10;;;7.50;99.90;;;;;;11872652;29;20463;-84
2022/03/07 13:27:48;;;;;;;11.90;5.80;;;7.70;99.90;;;;;;11879781;29;20155;-85
2022/03/07 13:33:57;;;;;;;8.55;5.63;;;7.70;99.90;;;;;;11879403;29;20051;-85
2022/03/07 13:40:15;;;;;;;10.75;6.30;;;7.70;99.90;;;;;;11882500;29;20416;-84
2022/03/07 13:46:17;;;;;;;10.82;6.60;;;7.80;99.90;;;;;;11891181;29;20051;-85
2022/03/07 13:52:30;;;;;;;8.85;6.32;;;7.70;99.90;;;;;;11875434;29;20062;-85
2022/03/07 13:58:35;;;;;;;12.52;6.60;;;7.40;99.90;;;;;;11889546;29;20051;-85
2022/03/07 14:04:38;;;;;;;12.95;7.07;;;7.60;99.90;;;;;;11872405;29;20125;-85
2022/03/07 14:10:41;;;;;;;7.88;5.22;;;7.40;99.90;;;;;;11880848;29;20077;-84
2022/03/07 14:16:43;;;;;;;11.45;7.85;;;7.20;99.90;;;;;;11870260;29;20054;-84
2022/03/07 14:22:45;;;;;;;11.43;7.10;;;7.10;99.90;;;;;;11881685;29;20054;-84
2022/03/07 14:28:47;;;;;;;10.38;6.88;;;7.10;99.90;;;;;;11874030;29;20055;-85
2022/03/07 14:34:54;;;;;;;10.68;7.43;;;7.00;99.90;;;;;;11879602;29;20111;-85
2022/03/07 14:40:56;;;;;;;10.60;7.50;;;6.90;99.90;;;;;;11878277;29;20055;-84
2022/03/07 14:46:58;;;;;;;13.25;7.53;;;6.60;99.90;;;;;;11877702;29;20044;-84
2022/03/07 14:53:00;;;;;;;11.52;7.10;;;6.60;99.90;;;;;;11876069;29;20538;-84
2022/03/07 14:59:02;;;;;;;11.13;7.45;;;6.60;99.90;;;;;;11873892;29;20108;-84
2022/03/07 15:05:09;;;;;;;12.63;8.40;;;6.30;99.90;;;;;;11868671;29;20415;-83
2022/03/07 15:11:11;;;;;;;10.50;7.20;;;6.40;99.90;;;;;;11847714;29;20599;-84
2022/03/07 15:17:13;;;;;;;12.63;8.52;;;6.40;99.90;;;;;;11862371;29;20119;-85
2022/03/07 15:23:18;;;;;;;11.73;8.05;;;6.40;99.90;;;;;;11869611;29;20079;-84
2022/03/07 15:29:20;;;;;;;13.07;8.30;;;6.30;99.90;;;;;;11867338;29;20108;-84
2022/03/07 15:35:22;;;;;;;18.60;8.48;;;6.40;99.90;;;;;;11877427;29;20084;-84
2022/03/07 15:41:24;;;;;;;11.90;7.88;;;6.20;99.90;;;;;;11881007;29;20408;-84
2022/03/07 15:47:26;;;;;;;13.75;8.07;;;6.30;99.90;;;;;;11881394;29;20059;-84
2022/03/07 15:53:29;;;;;;;15.82;7.80;;;6.30;99.90;;;;;;11878041;29;20069;-85
2022/03/07 15:59:31;;;;;;;11.20;7.35;;;6.30;99.90;;;;;;11881739;29;20108;-85
2022/03/07 16:05:33;;;;;;;13.95;6.70;;;6.10;99.90;;;;;;11883051;29;20115;-84
2022/03/07 16:11:35;;;;;;;10.48;6.32;;;5.90;99.90;;;;;;11873671;29;20059;-84
2022/03/07 16:17:39;;;;;;;9.35;5.82;;;5.90;99.90;;;;;;11879790;29;20107;-84
2022/03/07 16:23:41;;;;;;;12.83;6.60;;;5.70;99.90;;;;;;11882165;29;20092;-85
2022/03/07 16:29:43;;;;;;;8.63;5.10;;;5.40;99.90;;;;;;11881327;29;20070;-85
2022/03/07 16:35:46;;;;;;;6.18;3.70;;;5.30;99.90;;;;;;11885572;29;20054;-84
2022/03/07 16:41:48;;;;;;;7.53;3.83;;;5.10;99.90;;;;;;11878186;29;20063;-85
2022/03/07 16:47:50;;;;;;;6.72;3.90;;;4.90;99.90;;;;;;11883990;29;20112;-85
2022/03/07 16:53:52;;;;;;;7.78;3.63;;;4.80;99.90;;;;;;11879974;29;20800;-83
2022/03/07 16:59:54;;;;;;;6.63;3.78;;;4.70;99.90;;;;;;11871381;29;20062;-84
2022/03/07 17:05:57;;;;;;;6.13;3.30;;;4.50;99.90;;;;;;11867715;29;20058;-84
2022/03/07 17:11:59;;;;;;;6.10;3.58;;;4.40;99.90;;;;;;11878277;29;20054;-84
2022/03/07 17:18:01;;;;;;;6.35;3.80;;;4.20;99.90;;;;;;11880188;29;20107;-84
2022/03/07 17:24:04;;;;;;;10.32;3.80;;;4.10;99.90;;;;;;11877374;29;20108;-84
2022/03/07 17:30:10;;;;;;;6.35;4.30;;;4.10;99.90;;;;;;11875230;29;20058;-85
2022/03/07 17:36:12;;;;;;;9.93;4.57;;;3.80;99.90;;;;;;11888893;29;20051;-85
2022/03/07 17:42:15;;;;;;;9.32;4.65;;;3.70;99.90;;;;;;11876663;29;20304;-84
2022/03/07 17:48:19;;;;;;;8.32;4.55;;;3.50;99.90;;;;;;11880456;29;20116;-84
2022/03/07 17:54:21;;;;;;;9.82;5.13;;;3.40;99.90;;;;;;11879874;29;20115;-84
2022/03/07 18:00:23;;;;;;;9.25;5.25;;;3.30;99.90;;;;;;11875307;29;20059;-84
2022/03/07 18:06:25;;;;;;;9.70;5.57;;;3.30;99.90;;;;;;11870740;29;20062;-84
2022/03/07 18:12:28;;;;;;;10.93;5.60;;;3.20;99.90;;;;;;11872193;29;20117;-84
2022/03/07 18:18:30;;;;;;;9.77;5.55;;;3.20;99.90;;;;;;11880505;29;20066;-84
2022/03/07 18:24:33;;;;;;;10.00;5.45;;;3.00;99.90;;;;;;11876828;29;20051;-84
2022/03/07 18:30:35;;;;;;;10.23;5.47;;;2.80;99.90;;;;;;11872128;29;20055;-84
2022/03/07 18:36:37;;;;;;;10.25;5.47;;;2.80;99.90;;;;;;11881487;29;20059;-84
2022/03/07 18:42:40;;;;;;;9.45;5.18;;;2.70;99.90;;;;;;11872180;29;20053;-83
2022/03/07 18:48:42;;;;;;;8.13;5.22;;;2.50;99.90;;;;;;11874113;29;20107;-84
2022/03/07 18:54:44;;;;;;;8.93;5.05;;;2.50;99.90;;;;;;11876804;29;21442;-84
2022/03/07 19:00:47;;;;;;;10.00;5.47;;;2.50;99.90;;;;;;11896189;29;20055;-84
2022/03/07 19:06:50;;;;;;;10.55;5.30;;;2.60;99.90;;;;;;11888117;29;20056;-84
2022/03/07 19:12:51;;;;;;;11.05;5.25;;;2.40;99.90;;;;;;11888463;29;20485;-84
2022/03/07 19:18:53;;;;;;;11.95;6.82;;;2.40;99.90;;;;;;11893073;29;20529;-84
2022/03/07 19:24:55;;;;;;;73.75;30.52;;;2.30;99.90;;;;;;11890864;29;20505;-84
2022/03/07 19:30:57;;;;;;;14.40;6.82;;;2.20;99.90;;;;;;11895365;29;20055;-84
2022/03/07 19:37:00;;;;;;;17.80;11.50;;;2.10;99.90;;;;;;11881831;29;20063;-84
2022/03/07 19:43:02;;;;;;;25.75;15.40;;;2.00;99.90;;;;;;11882646;29;20047;-84
2022/03/07 19:49:04;;;;;;;28.80;16.50;;;1.80;99.90;;;;;;11878751;29;20117;-83
2022/03/07 19:55:06;;;;;;;55.80;30.10;;;2.00;99.90;;;;;;11881328;29;20104;-84
2022/03/07 20:01:08;;;;;;;38.38;22.48;;;1.80;99.90;;;;;;11886542;29;20059;-83
2022/03/07 20:07:11;;;;;;;21.88;13.77;;;1.70;99.90;;;;;;11880683;29;20654;-84
2022/03/07 20:13:13;;;;;;;19.52;11.40;;;1.60;99.90;;;;;;11883084;29;20136;-84
2022/03/07 20:19:15;;;;;;;15.95;9.52;;;1.50;99.90;;;;;;11886484;29;20142;-84
2022/03/07 20:25:18;;;;;;;15.57;9.40;;;1.40;99.90;;;;;;11882260;29;20513;-84
2022/03/07 20:31:21;;;;;;;17.38;9.43;;;1.60;99.90;;;;;;11884882;29;20088;-84
2022/03/07 20:37:23;;;;;;;22.08;12.93;;;1.70;99.90;;;;;;11876115;29;20089;-83
2022/03/07 20:43:24;;;;;;;19.92;10.85;;;1.70;99.90;;;;;;11881677;29;20201;-84
2022/03/07 20:49:27;;;;;;;18.80;11.40;;;1.50;99.90;;;;;;11887374;29;20112;-84
2022/03/07 20:55:28;;;;;;;16.15;9.48;;;1.40;99.90;;;;;;11886580;29;20100;-84
2022/03/07 21:01:30;;;;;;;19.33;9.95;;;1.50;99.90;;;;;;11885532;29;20394;-84
2022/03/07 21:07:32;;;;;;;18.75;10.32;;;1.70;99.90;;;;;;11872297;29;20074;-84
2022/03/07 21:13:35;;;;;;;16.40;10.48;;;1.60;99.90;;;;;;11879170;29;20057;-83
2022/03/07 21:19:36;;;;;;;17.17;9.68;;;1.70;99.90;;;;;;11874755;29;20059;-83
2022/03/07 21:25:38;;;;;;;16.27;8.65;;;1.60;99.90;;;;;;11882802;29;20046;-84
2022/03/07 21:31:40;;;;;;;17.20;9.73;;;1.60;99.90;;;;;;11882324;29;20452;-84
2022/03/07 21:37:42;;;;;;;17.40;10.18;;;1.40;99.90;;;;;;11882978;29;20055;-83
2022/03/07 21:43:44;;;;;;;18.67;9.95;;;1.40;99.90;;;;;;11878342;29;20051;-83
2022/03/07 21:49:46;;;;;;;19.80;12.07;;;1.30;99.90;;;;;;11875981;29;20508;-84
2022/03/07 21:55:48;;;;;;;18.67;10.77;;;1.00;99.90;;;;;;11873210;29;20112;-83
2022/03/07 22:01:50;;;;;;;18.52;9.82;;;0.80;99.90;;;;;;11877823;29;20140;-83
2022/03/07 22:07:52;;;;;;;16.52;9.20;;;1.10;99.90;;;;;;11874099;29;20054;-84
2022/03/07 22:13:54;;;;;;;17.38;9.23;;;1.40;99.90;;;;;;11871571;29;20136;-83
2022/03/07 22:19:56;;;;;;;17.30;9.32;;;1.50;99.90;;;;;;11876145;29;20059;-84
2022/03/07 22:25:58;;;;;;;19.45;11.88;;;1.60;99.90;;;;;;11877497;29;20108;-84
2022/03/07 22:32:02;;;;;;;18.30;10.27;;;1.70;99.90;;;;;;11882102;29;20074;-83
2022/03/07 22:38:04;;;;;;;19.42;10.95;;;1.60;99.90;;;;;;11878061;29;20064;-83
2022/03/07 22:44:05;;;;;;;16.27;10.45;;;1.60;99.90;;;;;;11871395;29;20142;-82
2022/03/07 22:50:09;;;;;;;16.95;10.05;;;1.50;99.90;;;;;;11873840;29;20090;-83
2022/03/07 22:56:11;;;;;;;18.40;10.60;;;1.50;99.90;;;;;;11874059;29;20062;-84
2022/03/07 23:02:13;;;;;;;19.35;11.10;;;1.50;99.90;;;;;;11869791;29;20059;-84
2022/03/07 23:08:16;;;;;;;17.15;10.30;;;1.50;99.90;;;;;;11879697;29;20051;-83
2022/03/07 23:14:18;;;;;;;16.83;9.68;;;1.50;99.90;;;;;;11872506;29;20459;-84
2022/03/07 23:20:20;;;;;;;16.48;9.70;;;1.40;99.90;;;;;;11877571;29;20058;-83
2022/03/07 23:26:22;;;;;;;17.70;9.98;;;1.30;99.90;;;;;;11872461;29;20059;-84
2022/03/07 23:32:24;;;;;;;14.15;8.95;;;1.20;99.90;;;;;;11869209;29;20322;-83
2022/03/07 23:38:26;;;;;;;15.60;8.80;;;1.20;99.90;;;;;;11873278;29;20073;-83
2022/03/07 23:44:28;;;;;;;17.42;10.10;;;1.20;99.90;;;;;;11874180;29;20104;-83
2022/03/07 23:50:30;;;;;;;18.10;9.80;;;1.10;99.90;;;;;;11881562;29;20497;-84
2022/03/07 23:56:38;;;;;;;17.45;10.27;;;1.10;99.90;;;;;;11883434;29;20063;-83
